sensor_id;sensor_type;location;lat;lon;timestamp;pressure;altitude;pressure_sealevel;temperature;humidity
80118;BME280;69424;48.770;-1.564;2023-06-24T00:00:27;102584.14;;;17.78;66.00
80118;BME280;69424;48.770;-1.564;2023-06-24T00:03:15;102576.98;;;17.79;66.16
80118;BME280;69424;48.770;-1.564;2023-06-24T00:05:45;102588.78;;;17.78;66.32
80118;BME280;69424;48.770;-1.564;2023-06-24T00:08:18;102588.22;;;17.75;66.45
80118;BME280;69424;48.770;-1.564;2023-06-24T00:10:50;102588.87;;;17.68;66.71
80118;BME280;69424;48.770;-1.564;2023-06-24T00:13:18;102582.90;;;17.60;66.93
80118;BME280;69424;48.770;-1.564;2023-06-24T00:15:46;102578.88;;;17.51;67.40
80118;BME280;69424;48.770;-1.564;2023-06-24T00:18:15;102580.98;;;17.45;67.57
80118;BME280;69424;48.770;-1.564;2023-06-24T00:20:43;102582.73;;;17.43;67.74
80118;BME280;69424;48.770;-1.564;2023-06-24T00:23:13;102577.17;;;17.40;67.73
80118;BME280;69424;48.770;-1.564;2023-06-24T00:25:44;102580.70;;;17.36;67.86
80118;BME280;69424;48.770;-1.564;2023-06-24T00:28:12;102578.15;;;17.31;68.07
80118;BME280;69424;48.770;-1.564;2023-06-24T00:30:40;102577.36;;;17.24;68.53
80118;BME280;69424;48.770;-1.564;2023-06-24T00:33:09;102575.48;;;17.16;69.05
80118;BME280;69424;48.770;-1.564;2023-06-24T00:36:09;102575.27;;;17.12;69.41
80118;BME280;69424;48.770;-1.564;2023-06-24T00:38:39;102570.18;;;17.06;69.81
80118;BME280;69424;48.770;-1.564;2023-06-24T00:41:07;102567.27;;;17.01;69.76
80118;BME280;69424;48.770;-1.564;2023-06-24T00:43:36;102566.50;;;16.97;69.98
80118;BME280;69424;48.770;-1.564;2023-06-24T00:46:05;102561.61;;;16.90;70.23
80118;BME280;69424;48.770;-1.564;2023-06-24T00:48:34;102562.60;;;16.84;70.16
80118;BME280;69424;48.770;-1.564;2023-06-24T00:51:02;102561.58;;;16.76;70.23
80118;BME280;69424;48.770;-1.564;2023-06-24T00:53:30;102557.21;;;16.70;70.67
80118;BME280;69424;48.770;-1.564;2023-06-24T00:55:58;102554.17;;;16.68;70.57
80118;BME280;69424;48.770;-1.564;2023-06-24T00:58:32;102553.58;;;16.65;70.79
80118;BME280;69424;48.770;-1.564;2023-06-24T01:01:02;102556.58;;;16.61;70.96
80118;BME280;69424;48.770;-1.564;2023-06-24T01:03:31;102553.29;;;16.55;71.01
80118;BME280;69424;48.770;-1.564;2023-06-24T01:06:00;102553.16;;;16.47;71.19
80118;BME280;69424;48.770;-1.564;2023-06-24T01:08:29;102555.73;;;16.38;71.78
80118;BME280;69424;48.770;-1.564;2023-06-24T01:10:57;102556.62;;;16.25;72.27
80118;BME280;69424;48.770;-1.564;2023-06-24T01:13:26;102558.09;;;16.16;72.40
80118;BME280;69424;48.770;-1.564;2023-06-24T01:15:55;102555.83;;;16.08;72.69
80118;BME280;69424;48.770;-1.564;2023-06-24T01:21:54;102551.80;;;15.91;73.13
80118;BME280;69424;48.770;-1.564;2023-06-24T01:27:38;102544.55;;;15.73;73.66
80118;BME280;69424;48.770;-1.564;2023-06-24T01:32:54;102536.48;;;15.50;74.24
80118;BME280;69424;48.770;-1.564;2023-06-24T01:35:29;102535.61;;;15.41;74.63
80118;BME280;69424;48.770;-1.564;2023-06-24T01:38:15;102531.73;;;15.33;74.82
80118;BME280;69424;48.770;-1.564;2023-06-24T01:40:50;102527.13;;;15.25;74.97
80118;BME280;69424;48.770;-1.564;2023-06-24T01:43:20;102526.48;;;15.19;74.86
80118;BME280;69424;48.770;-1.564;2023-06-24T01:45:51;102522.88;;;15.16;74.81
80118;BME280;69424;48.770;-1.564;2023-06-24T01:48:27;102521.63;;;15.17;74.71
80118;BME280;69424;48.770;-1.564;2023-06-24T01:51:03;102522.16;;;15.16;74.70
80118;BME280;69424;48.770;-1.564;2023-06-24T01:53:36;102516.58;;;15.13;74.62
80118;BME280;69424;48.770;-1.564;2023-06-24T01:56:10;102518.94;;;15.06;74.45
80118;BME280;69424;48.770;-1.564;2023-06-24T01:58:41;102517.16;;;14.96;74.85
80118;BME280;69424;48.770;-1.564;2023-06-24T02:01:12;102521.13;;;14.91;74.96
80118;BME280;69424;48.770;-1.564;2023-06-24T02:03:42;102521.98;;;14.88;75.31
80118;BME280;69424;48.770;-1.564;2023-06-24T02:06:12;102521.23;;;14.86;75.29
80118;BME280;69424;48.770;-1.564;2023-06-24T02:08:43;102515.81;;;14.82;75.09
80118;BME280;69424;48.770;-1.564;2023-06-24T02:11:13;102511.65;;;14.79;75.44
80118;BME280;69424;48.770;-1.564;2023-06-24T02:13:43;102515.48;;;14.75;75.85
80118;BME280;69424;48.770;-1.564;2023-06-24T02:16:16;102515.02;;;14.71;76.04
80118;BME280;69424;48.770;-1.564;2023-06-24T02:18:45;102514.55;;;14.64;76.25
80118;BME280;69424;48.770;-1.564;2023-06-24T02:21:17;102510.27;;;14.57;76.43
80118;BME280;69424;48.770;-1.564;2023-06-24T02:23:47;102510.09;;;14.48;76.64
80118;BME280;69424;48.770;-1.564;2023-06-24T02:26:16;102506.35;;;14.39;77.38
80118;BME280;69424;48.770;-1.564;2023-06-24T02:28:45;102505.14;;;14.33;77.37
80118;BME280;69424;48.770;-1.564;2023-06-24T02:31:15;102500.05;;;14.28;77.52
80118;BME280;69424;48.770;-1.564;2023-06-24T02:33:43;102499.10;;;14.25;77.75
80118;BME280;69424;48.770;-1.564;2023-06-24T02:36:12;102502.10;;;14.24;78.17
80118;BME280;69424;48.770;-1.564;2023-06-24T02:38:40;102501.17;;;14.22;78.27
80118;BME280;69424;48.770;-1.564;2023-06-24T02:41:08;102501.45;;;14.19;78.45
80118;BME280;69424;48.770;-1.564;2023-06-24T02:43:36;102502.35;;;14.19;78.32
80118;BME280;69424;48.770;-1.564;2023-06-24T02:46:05;102498.45;;;14.20;78.69
80118;BME280;69424;48.770;-1.564;2023-06-24T02:48:37;102499.14;;;14.19;78.60
80118;BME280;69424;48.770;-1.564;2023-06-24T02:51:07;102499.98;;;14.17;78.64
80118;BME280;69424;48.770;-1.564;2023-06-24T02:53:38;102497.85;;;14.17;78.62
80118;BME280;69424;48.770;-1.564;2023-06-24T02:56:08;102498.71;;;14.15;78.64
80118;BME280;69424;48.770;-1.564;2023-06-24T02:58:39;102497.67;;;14.17;78.57
80118;BME280;69424;48.770;-1.564;2023-06-24T03:01:18;102494.48;;;14.17;78.40
80118;BME280;69424;48.770;-1.564;2023-06-24T03:03:55;102494.82;;;14.16;78.35
80118;BME280;69424;48.770;-1.564;2023-06-24T03:06:24;102492.04;;;14.11;78.50
80118;BME280;69424;48.770;-1.564;2023-06-24T03:08:57;102489.30;;;14.08;78.60
80118;BME280;69424;48.770;-1.564;2023-06-24T03:11:26;102483.90;;;14.05;78.88
80118;BME280;69424;48.770;-1.564;2023-06-24T03:13:57;102479.77;;;14.04;78.82
80118;BME280;69424;48.770;-1.564;2023-06-24T03:16:39;102483.20;;;14.06;78.81
80118;BME280;69424;48.770;-1.564;2023-06-24T03:19:13;102481.10;;;14.07;78.89
80118;BME280;69424;48.770;-1.564;2023-06-24T03:21:42;102479.17;;;14.09;78.88
80118;BME280;69424;48.770;-1.564;2023-06-24T03:24:12;102480.45;;;14.10;79.00
80118;BME280;69424;48.770;-1.564;2023-06-24T03:26:41;102479.52;;;14.09;79.30
80118;BME280;69424;48.770;-1.564;2023-06-24T03:29:12;102478.35;;;14.04;79.43
80118;BME280;69424;48.770;-1.564;2023-06-24T03:31:54;102477.36;;;14.00;79.63
80118;BME280;69424;48.770;-1.564;2023-06-24T03:34:24;102475.05;;;14.00;79.96
80118;BME280;69424;48.770;-1.564;2023-06-24T03:36:55;102475.70;;;14.04;80.05
80118;BME280;69424;48.770;-1.564;2023-06-24T03:39:23;102471.95;;;14.12;80.41
80118;BME280;69424;48.770;-1.564;2023-06-24T03:41:51;102473.57;;;14.21;80.31
80118;BME280;69424;48.770;-1.564;2023-06-24T03:44:20;102478.16;;;14.37;81.20
80118;BME280;69424;48.770;-1.564;2023-06-24T03:46:48;102474.07;;;14.61;81.52
80118;BME280;69424;48.770;-1.564;2023-06-24T03:49:16;102469.78;;;14.88;81.02
80118;BME280;69424;48.770;-1.564;2023-06-24T03:51:49;102466.90;;;15.15;80.20
80118;BME280;69424;48.770;-1.564;2023-06-24T03:54:17;102471.23;;;15.39;79.42
80118;BME280;69424;48.770;-1.564;2023-06-24T03:56:45;102471.40;;;15.61;78.46
80118;BME280;69424;48.770;-1.564;2023-06-24T03:59:13;102474.01;;;15.78;77.76
80118;BME280;69424;48.770;-1.564;2023-06-24T04:01:42;102475.08;;;15.90;77.03
80118;BME280;69424;48.770;-1.564;2023-06-24T04:04:10;102479.36;;;15.89;75.58
80118;BME280;69424;48.770;-1.564;2023-06-24T04:06:39;102482.11;;;15.82;74.95
80118;BME280;69424;48.770;-1.564;2023-06-24T04:09:07;102486.05;;;15.73;75.12
80118;BME280;69424;48.770;-1.564;2023-06-24T04:11:37;102484.80;;;15.63;74.77
80118;BME280;69424;48.770;-1.564;2023-06-24T04:14:05;102486.22;;;15.51;75.03
80118;BME280;69424;48.770;-1.564;2023-06-24T04:16:35;102484.18;;;15.36;75.34
80118;BME280;69424;48.770;-1.564;2023-06-24T04:19:03;102483.85;;;15.26;75.45
80118;BME280;69424;48.770;-1.564;2023-06-24T04:21:31;102486.37;;;15.18;75.75
80118;BME280;69424;48.770;-1.564;2023-06-24T04:24:00;102485.02;;;15.12;75.75
80118;BME280;69424;48.770;-1.564;2023-06-24T04:26:28;102484.42;;;15.09;75.68
80118;BME280;69424;48.770;-1.564;2023-06-24T04:28:57;102482.80;;;15.07;75.81
80118;BME280;69424;48.770;-1.564;2023-06-24T04:31:25;102483.31;;;15.07;75.82
80118;BME280;69424;48.770;-1.564;2023-06-24T04:33:54;102484.95;;;15.08;75.76
80118;BME280;69424;48.770;-1.564;2023-06-24T04:36:22;102481.70;;;15.07;75.94
80118;BME280;69424;48.770;-1.564;2023-06-24T04:38:50;102483.27;;;15.03;76.02
80118;BME280;69424;48.770;-1.564;2023-06-24T04:41:18;102483.31;;;15.17;75.96
80118;BME280;69424;48.770;-1.564;2023-06-24T04:43:47;102486.21;;;15.62;75.71
80118;BME280;69424;48.770;-1.564;2023-06-24T04:46:15;102481.61;;;16.23;74.32
80118;BME280;69424;48.770;-1.564;2023-06-24T04:48:44;102482.36;;;16.84;73.02
80118;BME280;69424;48.770;-1.564;2023-06-24T04:51:12;102482.39;;;17.41;71.58
80118;BME280;69424;48.770;-1.564;2023-06-24T04:53:40;102482.42;;;17.94;70.08
80118;BME280;69424;48.770;-1.564;2023-06-24T04:56:08;102485.77;;;18.49;68.69
80118;BME280;69424;48.770;-1.564;2023-06-24T04:58:36;102481.48;;;19.05;66.92
80118;BME280;69424;48.770;-1.564;2023-06-24T05:01:04;102483.64;;;19.55;65.24
80118;BME280;69424;48.770;-1.564;2023-06-24T05:03:33;102482.52;;;20.01;63.90
80118;BME280;69424;48.770;-1.564;2023-06-24T05:06:01;102481.28;;;20.49;61.92
80118;BME280;69424;48.770;-1.564;2023-06-24T05:08:29;102485.59;;;20.90;60.78
80118;BME280;69424;48.770;-1.564;2023-06-24T05:10:57;102484.17;;;21.36;59.73
80118;BME280;69424;48.770;-1.564;2023-06-24T05:13:27;102481.39;;;21.87;58.17
80118;BME280;69424;48.770;-1.564;2023-06-24T05:15:55;102482.42;;;22.40;56.81
80118;BME280;69424;48.770;-1.564;2023-06-24T05:18:23;102480.86;;;22.88;55.26
80118;BME280;69424;48.770;-1.564;2023-06-24T05:20:51;102479.44;;;23.35;54.11
80118;BME280;69424;48.770;-1.564;2023-06-24T05:23:20;102475.77;;;23.80;52.66
80118;BME280;69424;48.770;-1.564;2023-06-24T05:25:48;102476.94;;;24.22;51.61
80118;BME280;69424;48.770;-1.564;2023-06-24T05:28:16;102475.84;;;24.67;50.59
80118;BME280;69424;48.770;-1.564;2023-06-24T05:30:45;102475.33;;;25.12;49.34
80118;BME280;69424;48.770;-1.564;2023-06-24T05:33:14;102475.48;;;25.50;48.21
80118;BME280;69424;48.770;-1.564;2023-06-24T05:35:45;102476.81;;;25.75;46.94
80118;BME280;69424;48.770;-1.564;2023-06-24T05:38:13;102477.67;;;25.91;46.48
80118;BME280;69424;48.770;-1.564;2023-06-24T05:40:41;102481.36;;;26.09;45.87
80118;BME280;69424;48.770;-1.564;2023-06-24T05:43:09;102480.42;;;26.28;45.52
80118;BME280;69424;48.770;-1.564;2023-06-24T05:45:38;102479.10;;;26.48;45.29
80118;BME280;69424;48.770;-1.564;2023-06-24T05:48:06;102477.23;;;26.81;44.83
80118;BME280;69424;48.770;-1.564;2023-06-24T05:50:34;102476.11;;;27.09;44.16
80118;BME280;69424;48.770;-1.564;2023-06-24T05:53:03;102478.74;;;27.30;43.67
80118;BME280;69424;48.770;-1.564;2023-06-24T05:55:31;102476.95;;;27.50;43.14
80118;BME280;69424;48.770;-1.564;2023-06-24T05:57:59;102477.75;;;27.69;42.91
80118;BME280;69424;48.770;-1.564;2023-06-24T06:00:27;102473.67;;;27.87;42.32
80118;BME280;69424;48.770;-1.564;2023-06-24T06:02:55;102476.50;;;28.00;42.10
80118;BME280;69424;48.770;-1.564;2023-06-24T06:05:24;102474.42;;;28.06;41.65
80118;BME280;69424;48.770;-1.564;2023-06-24T06:07:52;102475.41;;;28.09;41.83
80118;BME280;69424;48.770;-1.564;2023-06-24T06:10:21;102475.16;;;28.26;41.76
80118;BME280;69424;48.770;-1.564;2023-06-24T06:12:49;102476.60;;;28.46;41.38
80118;BME280;69424;48.770;-1.564;2023-06-24T06:15:17;102477.14;;;28.54;41.15
80118;BME280;69424;48.770;-1.564;2023-06-24T06:17:46;102475.45;;;28.66;41.43
80118;BME280;69424;48.770;-1.564;2023-06-24T06:20:15;102480.96;;;28.69;41.14
80118;BME280;69424;48.770;-1.564;2023-06-24T06:22:43;102481.05;;;28.71;41.21
80118;BME280;69424;48.770;-1.564;2023-06-24T06:25:11;102482.51;;;28.81;41.43
80118;BME280;69424;48.770;-1.564;2023-06-24T06:27:39;102477.99;;;28.89;41.35
80118;BME280;69424;48.770;-1.564;2023-06-24T06:30:08;102476.23;;;28.88;41.36
80118;BME280;69424;48.770;-1.564;2023-06-24T06:32:36;102474.53;;;28.80;41.34
80118;BME280;69424;48.770;-1.564;2023-06-24T06:35:05;102475.86;;;28.65;41.59
80118;BME280;69424;48.770;-1.564;2023-06-24T06:37:33;102475.52;;;28.45;41.99
80118;BME280;69424;48.770;-1.564;2023-06-24T06:40:02;102474.58;;;28.17;42.08
80118;BME280;69424;48.770;-1.564;2023-06-24T06:42:30;102476.98;;;27.96;42.08
80118;BME280;69424;48.770;-1.564;2023-06-24T06:44:58;102474.30;;;27.79;41.53
80118;BME280;69424;48.770;-1.564;2023-06-24T06:47:26;102475.90;;;27.65;42.23
80118;BME280;69424;48.770;-1.564;2023-06-24T06:49:54;102476.83;;;27.49;43.17
80118;BME280;69424;48.770;-1.564;2023-06-24T06:52:22;102476.11;;;27.32;43.05
80118;BME280;69424;48.770;-1.564;2023-06-24T06:54:50;102470.77;;;27.18;42.76
80118;BME280;69424;48.770;-1.564;2023-06-24T06:57:18;102476.24;;;27.06;42.77
80118;BME280;69424;48.770;-1.564;2023-06-24T06:59:46;102472.85;;;26.99;42.85
80118;BME280;69424;48.770;-1.564;2023-06-24T07:02:15;102474.98;;;26.94;43.13
80118;BME280;69424;48.770;-1.564;2023-06-24T07:04:44;102473.27;;;26.85;42.81
80118;BME280;69424;48.770;-1.564;2023-06-24T07:07:12;102472.87;;;26.75;42.61
80118;BME280;69424;48.770;-1.564;2023-06-24T07:09:40;102476.05;;;26.66;42.97
80118;BME280;69424;48.770;-1.564;2023-06-24T07:12:08;102475.41;;;26.56;43.58
80118;BME280;69424;48.770;-1.564;2023-06-24T07:14:36;102476.00;;;26.43;43.25
80118;BME280;69424;48.770;-1.564;2023-06-24T07:17:05;102475.09;;;26.31;43.74
80118;BME280;69424;48.770;-1.564;2023-06-24T07:19:33;102471.23;;;26.27;44.40
80118;BME280;69424;48.770;-1.564;2023-06-24T07:22:01;102473.36;;;26.22;43.52
80118;BME280;69424;48.770;-1.564;2023-06-24T07:24:29;102469.84;;;26.12;41.98
80118;BME280;69424;48.770;-1.564;2023-06-24T07:26:57;102471.04;;;26.08;42.50
80118;BME280;69424;48.770;-1.564;2023-06-24T07:29:25;102468.31;;;26.08;42.48
80118;BME280;69424;48.770;-1.564;2023-06-24T07:31:53;102470.18;;;26.07;41.63
80118;BME280;69424;48.770;-1.564;2023-06-24T07:34:21;102473.02;;;26.08;42.15
80118;BME280;69424;48.770;-1.564;2023-06-24T07:36:49;102468.86;;;26.14;41.57
80118;BME280;69424;48.770;-1.564;2023-06-24T07:39:18;102468.16;;;26.20;41.44
80118;BME280;69424;48.770;-1.564;2023-06-24T07:41:46;102469.42;;;26.21;40.45
80118;BME280;69424;48.770;-1.564;2023-06-24T07:44:14;102464.73;;;26.20;40.40
80118;BME280;69424;48.770;-1.564;2023-06-24T07:46:43;102460.95;;;26.19;40.18
80118;BME280;69424;48.770;-1.564;2023-06-24T07:49:11;102461.95;;;26.15;40.55
80118;BME280;69424;48.770;-1.564;2023-06-24T07:51:40;102455.84;;;26.13;40.69
80118;BME280;69424;48.770;-1.564;2023-06-24T07:54:08;102451.98;;;26.09;40.73
80118;BME280;69424;48.770;-1.564;2023-06-24T07:56:36;102449.52;;;26.12;40.71
80118;BME280;69424;48.770;-1.564;2023-06-24T07:59:04;102447.91;;;26.18;41.00
80118;BME280;69424;48.770;-1.564;2023-06-24T08:01:32;102447.69;;;26.26;40.84
80118;BME280;69424;48.770;-1.564;2023-06-24T08:04:01;102434.73;;;26.28;40.52
80118;BME280;69424;48.770;-1.564;2023-06-24T08:06:29;102433.00;;;26.31;41.00
80118;BME280;69424;48.770;-1.564;2023-06-24T08:08:57;102433.14;;;26.39;40.23
80118;BME280;69424;48.770;-1.564;2023-06-24T08:11:25;102432.05;;;26.44;39.50
80118;BME280;69424;48.770;-1.564;2023-06-24T08:13:53;102432.83;;;26.49;39.58
80118;BME280;69424;48.770;-1.564;2023-06-24T08:16:22;102430.05;;;26.56;39.15
80118;BME280;69424;48.770;-1.564;2023-06-24T08:18:50;102426.41;;;26.57;38.87
80118;BME280;69424;48.770;-1.564;2023-06-24T08:21:18;102426.18;;;26.59;38.58
80118;BME280;69424;48.770;-1.564;2023-06-24T08:23:46;102425.05;;;26.60;38.92
80118;BME280;69424;48.770;-1.564;2023-06-24T08:26:16;102425.92;;;26.68;39.54
80118;BME280;69424;48.770;-1.564;2023-06-24T08:28:46;102428.27;;;26.80;39.24
80118;BME280;69424;48.770;-1.564;2023-06-24T08:31:15;102418.59;;;26.87;39.52
80118;BME280;69424;48.770;-1.564;2023-06-24T08:33:44;102422.23;;;26.98;39.68
80118;BME280;69424;48.770;-1.564;2023-06-24T08:36:15;102421.91;;;27.12;38.72
80118;BME280;69424;48.770;-1.564;2023-06-24T08:38:43;102420.65;;;27.17;38.75
80118;BME280;69424;48.770;-1.564;2023-06-24T08:41:11;102418.78;;;27.24;39.05
80118;BME280;69424;48.770;-1.564;2023-06-24T08:43:40;102417.72;;;27.35;38.70
80118;BME280;69424;48.770;-1.564;2023-06-24T08:46:08;102414.77;;;27.46;38.79
80118;BME280;69424;48.770;-1.564;2023-06-24T08:48:39;102413.29;;;27.53;38.48
80118;BME280;69424;48.770;-1.564;2023-06-24T08:51:13;102410.31;;;27.54;38.27
80118;BME280;69424;48.770;-1.564;2023-06-24T08:53:43;102407.80;;;27.53;38.86
80118;BME280;69424;48.770;-1.564;2023-06-24T08:56:13;102403.13;;;27.62;39.30
80118;BME280;69424;48.770;-1.564;2023-06-24T08:58:42;102397.46;;;27.73;39.19
80118;BME280;69424;48.770;-1.564;2023-06-24T09:01:11;102389.73;;;27.80;38.93
80118;BME280;69424;48.770;-1.564;2023-06-24T09:03:39;102386.96;;;27.91;39.18
80118;BME280;69424;48.770;-1.564;2023-06-24T09:06:07;102383.09;;;28.03;39.06
80118;BME280;69424;48.770;-1.564;2023-06-24T09:08:36;102377.27;;;28.12;39.31
80118;BME280;69424;48.770;-1.564;2023-06-24T09:11:08;102375.85;;;28.26;38.98
80118;BME280;69424;48.770;-1.564;2023-06-24T09:13:36;102377.61;;;28.36;38.51
80118;BME280;69424;48.770;-1.564;2023-06-24T09:16:14;102375.56;;;28.42;38.37
80118;BME280;69424;48.770;-1.564;2023-06-24T09:18:50;102370.36;;;28.49;38.36
80118;BME280;69424;48.770;-1.564;2023-06-24T09:21:23;102364.23;;;28.57;37.81
80118;BME280;69424;48.770;-1.564;2023-06-24T09:23:54;102358.34;;;28.53;39.68
80118;BME280;69424;48.770;-1.564;2023-06-24T09:26:24;102359.81;;;28.59;40.28
80118;BME280;69424;48.770;-1.564;2023-06-24T09:28:53;102355.64;;;28.58;39.91
80118;BME280;69424;48.770;-1.564;2023-06-24T09:31:23;102355.02;;;28.50;40.19
80118;BME280;69424;48.770;-1.564;2023-06-24T09:33:52;102354.60;;;28.47;40.43
80118;BME280;69424;48.770;-1.564;2023-06-24T09:36:24;102347.67;;;28.43;40.57
80118;BME280;69424;48.770;-1.564;2023-06-24T09:39:05;102348.75;;;28.43;40.99
80118;BME280;69424;48.770;-1.564;2023-06-24T09:41:48;102345.49;;;28.52;40.85
80118;BME280;69424;48.770;-1.564;2023-06-24T09:44:17;102343.19;;;28.46;40.98
80118;BME280;69424;48.770;-1.564;2023-06-24T09:46:47;102343.98;;;28.44;41.62
80118;BME280;69424;48.770;-1.564;2023-06-24T09:49:15;102342.69;;;28.49;40.64
80118;BME280;69424;48.770;-1.564;2023-06-24T09:51:46;102336.59;;;28.34;40.72
80118;BME280;69424;48.770;-1.564;2023-06-24T09:54:16;102337.48;;;28.25;41.71
80118;BME280;69424;48.770;-1.564;2023-06-24T09:56:51;102333.06;;;28.17;41.22
80118;BME280;69424;48.770;-1.564;2023-06-24T09:59:21;102331.70;;;28.20;41.55
80118;BME280;69424;48.770;-1.564;2023-06-24T10:01:53;102332.56;;;28.25;41.36
80118;BME280;69424;48.770;-1.564;2023-06-24T10:04:23;102328.48;;;28.18;41.87
80118;BME280;69424;48.770;-1.564;2023-06-24T10:06:51;102325.84;;;28.11;41.53
80118;BME280;69424;48.770;-1.564;2023-06-24T10:09:19;102326.34;;;28.12;41.19
80118;BME280;69424;48.770;-1.564;2023-06-24T10:11:48;102326.37;;;28.16;41.31
80118;BME280;69424;48.770;-1.564;2023-06-24T10:14:16;102319.08;;;28.17;40.06
80118;BME280;69424;48.770;-1.564;2023-06-24T10:16:45;102319.14;;;28.15;40.57
80118;BME280;69424;48.770;-1.564;2023-06-24T10:19:22;102318.05;;;28.15;42.46
80118;BME280;69424;48.770;-1.564;2023-06-24T10:21:52;102314.80;;;28.10;41.11
80118;BME280;69424;48.770;-1.564;2023-06-24T10:24:31;102315.66;;;28.11;42.03
80118;BME280;69424;48.770;-1.564;2023-06-24T10:27:04;102308.59;;;28.15;41.94
80118;BME280;69424;48.770;-1.564;2023-06-24T10:29:37;102305.92;;;28.23;42.39
80118;BME280;69424;48.770;-1.564;2023-06-24T10:32:07;102302.09;;;28.32;42.11
80118;BME280;69424;48.770;-1.564;2023-06-24T10:34:43;102301.91;;;28.41;42.67
80118;BME280;69424;48.770;-1.564;2023-06-24T10:37:24;102299.56;;;28.54;42.26
80118;BME280;69424;48.770;-1.564;2023-06-24T10:39:57;102292.57;;;28.56;40.83
80118;BME280;69424;48.770;-1.564;2023-06-24T10:42:29;102294.15;;;28.62;41.12
80118;BME280;69424;48.770;-1.564;2023-06-24T10:44:59;102291.00;;;28.63;40.62
80118;BME280;69424;48.770;-1.564;2023-06-24T10:47:29;102285.44;;;28.61;40.42
80118;BME280;69424;48.770;-1.564;2023-06-24T10:49:58;102284.21;;;28.65;40.24
80118;BME280;69424;48.770;-1.564;2023-06-24T10:52:26;102283.23;;;28.70;40.62
80118;BME280;69424;48.770;-1.564;2023-06-24T10:54:57;102279.42;;;28.75;39.89
80118;BME280;69424;48.770;-1.564;2023-06-24T10:57:27;102277.25;;;28.78;40.00
80118;BME280;69424;48.770;-1.564;2023-06-24T10:59:56;102275.55;;;28.80;40.15
80118;BME280;69424;48.770;-1.564;2023-06-24T11:02:26;102270.49;;;28.79;40.57
80118;BME280;69424;48.770;-1.564;2023-06-24T11:04:56;102264.11;;;28.87;40.67
80118;BME280;69424;48.770;-1.564;2023-06-24T11:07:30;102270.70;;;28.95;40.62
80118;BME280;69424;48.770;-1.564;2023-06-24T11:10:10;102267.73;;;29.00;41.14
80118;BME280;69424;48.770;-1.564;2023-06-24T11:12:42;102264.02;;;29.06;40.86
80118;BME280;69424;48.770;-1.564;2023-06-24T11:15:12;102257.83;;;29.18;39.24
80118;BME280;69424;48.770;-1.564;2023-06-24T11:17:41;102261.56;;;29.29;39.23
80118;BME280;69424;48.770;-1.564;2023-06-24T11:20:12;102255.21;;;29.28;38.75
80118;BME280;69424;48.770;-1.564;2023-06-24T11:22:43;102251.56;;;29.32;39.51
80118;BME280;69424;48.770;-1.564;2023-06-24T11:25:21;102247.33;;;29.37;39.79
80118;BME280;69424;48.770;-1.564;2023-06-24T11:27:50;102250.70;;;29.43;39.73
80118;BME280;69424;48.770;-1.564;2023-06-24T11:30:20;102249.17;;;29.52;40.56
80118;BME280;69424;48.770;-1.564;2023-06-24T11:32:48;102243.32;;;29.57;40.42
80118;BME280;69424;48.770;-1.564;2023-06-24T11:35:18;102243.15;;;29.64;40.01
80118;BME280;69424;48.770;-1.564;2023-06-24T11:37:47;102237.13;;;29.65;39.11
80118;BME280;69424;48.770;-1.564;2023-06-24T11:40:17;102234.27;;;29.67;38.22
80118;BME280;69424;48.770;-1.564;2023-06-24T11:42:48;102229.73;;;29.70;38.45
80118;BME280;69424;48.770;-1.564;2023-06-24T11:45:20;102226.15;;;29.76;38.79
80118;BME280;69424;48.770;-1.564;2023-06-24T11:47:49;102226.86;;;29.89;38.16
80118;BME280;69424;48.770;-1.564;2023-06-24T11:50:17;102221.94;;;29.93;38.46
80118;BME280;69424;48.770;-1.564;2023-06-24T11:52:47;102216.62;;;29.97;38.13
80118;BME280;69424;48.770;-1.564;2023-06-24T11:55:23;102212.17;;;30.02;37.98
80118;BME280;69424;48.770;-1.564;2023-06-24T11:57:57;102207.27;;;30.09;37.63
80118;BME280;69424;48.770;-1.564;2023-06-24T12:00:31;102202.59;;;30.18;37.07
80118;BME280;69424;48.770;-1.564;2023-06-24T12:03:06;102201.19;;;30.17;37.01
80118;BME280;69424;48.770;-1.564;2023-06-24T12:05:39;102191.11;;;30.22;36.41
80118;BME280;69424;48.770;-1.564;2023-06-24T12:08:13;102187.89;;;30.31;35.99
80118;BME280;69424;48.770;-1.564;2023-06-24T12:10:45;102184.69;;;30.45;36.31
80118;BME280;69424;48.770;-1.564;2023-06-24T12:13:13;102178.11;;;30.44;35.84
80118;BME280;69424;48.770;-1.564;2023-06-24T12:15:42;102175.96;;;30.36;36.00
80118;BME280;69424;48.770;-1.564;2023-06-24T12:18:12;102174.22;;;30.39;36.33
80118;BME280;69424;48.770;-1.564;2023-06-24T12:20:40;102171.47;;;30.46;36.72
80118;BME280;69424;48.770;-1.564;2023-06-24T12:23:09;102167.73;;;30.55;37.08
80118;BME280;69424;48.770;-1.564;2023-06-24T12:25:38;102168.23;;;30.62;35.74
80118;BME280;69424;48.770;-1.564;2023-06-24T12:28:06;102170.81;;;30.62;34.84
80118;BME280;69424;48.770;-1.564;2023-06-24T12:30:34;102167.30;;;30.59;34.66
80118;BME280;69424;48.770;-1.564;2023-06-24T12:33:03;102159.66;;;30.48;34.65
80118;BME280;69424;48.770;-1.564;2023-06-24T12:35:31;102156.52;;;30.53;35.11
80118;BME280;69424;48.770;-1.564;2023-06-24T12:38:00;102151.20;;;30.63;34.49
80118;BME280;69424;48.770;-1.564;2023-06-24T12:40:28;102152.45;;;30.64;34.55
80118;BME280;69424;48.770;-1.564;2023-06-24T12:42:56;102149.34;;;30.64;34.98
80118;BME280;69424;48.770;-1.564;2023-06-24T12:45:25;102145.52;;;30.67;34.90
80118;BME280;69424;48.770;-1.564;2023-06-24T12:47:54;102144.97;;;30.71;34.94
80118;BME280;69424;48.770;-1.564;2023-06-24T12:50:22;102141.62;;;30.68;35.01
80118;BME280;69424;48.770;-1.564;2023-06-24T12:52:51;102142.44;;;30.70;34.31
80118;BME280;69424;48.770;-1.564;2023-06-24T12:55:19;102138.44;;;30.74;34.53
80118;BME280;69424;48.770;-1.564;2023-06-24T12:57:47;102134.88;;;30.82;34.44
80118;BME280;69424;48.770;-1.564;2023-06-24T13:00:19;102138.54;;;30.91;34.33
80118;BME280;69424;48.770;-1.564;2023-06-24T13:02:50;102131.96;;;30.95;34.84